createdAt,value
2022-08-28T00:00:21.600Z,2.42
2022-08-28T00:05:25.524Z,1.90
2022-08-28T00:10:28.139Z,2.30
2022-08-28T00:15:31.968Z,2.22
2022-08-28T00:20:34.181Z,2.00
2022-08-28T00:25:35.914Z,2.35
2022-08-28T00:30:41.687Z,2.47
2022-08-28T00:35:43.460Z,2.03
2022-08-28T00:40:47.581Z,2.17
2022-08-28T00:45:49.023Z,2.47
2022-08-28T00:51:08.950Z,1.90
2022-08-28T00:56:13.164Z,2.10
2022-08-28T01:01:15.416Z,2.28
2022-08-28T01:06:19.881Z,1.98
2022-08-28T01:11:21.275Z,2.15
2022-08-28T01:16:23.144Z,2.00
2022-08-28T01:21:50.056Z,2.22
2022-08-28T01:26:51.385Z,2.30
2022-08-28T01:31:52.776Z,2.13
2022-08-28T01:36:54.216Z,2.30
2022-08-28T01:41:58.775Z,1.75
2022-08-28T01:47:00.137Z,1.85
2022-08-28T01:52:01.313Z,2.08
2022-08-28T01:57:05.225Z,2.28
2022-08-28T02:02:09.841Z,1.90
2022-08-28T02:07:11.292Z,2.42
2022-08-28T02:12:12.473Z,2.63
2022-08-28T02:17:13.698Z,2.15
2022-08-28T02:22:14.932Z,2.70
2022-08-28T02:27:16.164Z,3.03
2022-08-28T02:32:17.842Z,3.10
2022-08-28T02:37:20.796Z,3.03
2022-08-28T02:42:22.225Z,3.45
2022-08-28T02:47:23.596Z,2.78
2022-08-28T02:52:24.975Z,2.93
2022-08-28T02:57:26.641Z,3.40
2022-08-28T03:02:27.992Z,3.95
2022-08-28T03:07:29.472Z,3.80
2022-08-28T03:12:31.322Z,3.60
2022-08-28T03:17:33.084Z,4.45
2022-08-28T03:22:52.670Z,4.05
2022-08-28T03:27:54.470Z,3.95
2022-08-28T03:32:55.642Z,4.10
2022-08-28T03:37:56.870Z,4.45
2022-08-28T03:42:58.244Z,4.40
2022-08-28T03:48:00.874Z,3.93
2022-08-28T03:53:02.398Z,4.40
2022-08-28T03:58:03.607Z,4.60
2022-08-28T04:03:04.918Z,4.20
2022-08-28T04:08:07.392Z,4.13
2022-08-28T04:13:09.592Z,4.70
2022-08-28T04:18:11.491Z,3.38
2022-08-28T04:23:12.903Z,4.25
2022-08-28T04:28:14.488Z,3.80
2022-08-28T04:33:15.829Z,3.93
2022-08-28T04:38:17.334Z,3.57
2022-08-28T04:43:18.743Z,4.30
2022-08-28T04:48:20.173Z,3.90
2022-08-28T04:53:21.542Z,4.10
2022-08-28T04:58:24.119Z,4.10
2022-08-28T05:03:25.649Z,4.30
2022-08-28T05:08:28.797Z,4.07
2022-08-28T05:13:30.406Z,3.43
2022-08-28T05:18:32.224Z,3.63
2022-08-28T05:23:33.691Z,3.90
2022-08-28T05:28:34.839Z,3.83
2022-08-28T05:33:36.197Z,3.10
2022-08-28T05:38:40.240Z,3.43
2022-08-28T05:43:41.613Z,3.83
2022-08-28T05:48:44.883Z,3.42
2022-08-28T05:53:49.004Z,3.58
2022-08-28T05:58:50.401Z,3.30
2022-08-28T06:04:01.202Z,3.22
2022-08-28T06:09:14.077Z,4.88
2022-08-28T06:14:19.850Z,3.55
2022-08-28T06:19:23.674Z,2.85
2022-08-28T06:24:27.226Z,3.28
2022-08-28T06:29:29.080Z,3.17
2022-08-28T06:34:30.644Z,3.17
2022-08-28T06:39:31.836Z,2.80
2022-08-28T06:44:33.186Z,2.80
2022-08-28T06:49:34.936Z,3.58
2022-08-28T06:54:36.113Z,2.88
2022-08-28T06:59:37.342Z,2.70
2022-08-28T07:04:38.961Z,2.72
2022-08-28T07:09:40.344Z,2.85
2022-08-28T07:14:42.043Z,2.42
2022-08-28T07:19:43.232Z,2.85
2022-08-28T07:24:44.512Z,1.98
2022-08-28T07:29:45.653Z,2.80
2022-08-28T07:34:47.757Z,2.45
2022-08-28T07:39:49.081Z,2.50
2022-08-28T07:44:50.506Z,2.72
2022-08-28T07:49:52.735Z,2.15
2022-08-28T07:54:55.173Z,2.22
2022-08-28T07:59:56.627Z,3.00
2022-08-28T08:04:57.884Z,2.35
2022-08-28T08:09:59.215Z,2.60
2022-08-28T08:15:00.675Z,2.40
2022-08-28T08:20:02.596Z,2.78
2022-08-28T08:25:04.783Z,2.53
2022-08-28T08:30:06.602Z,3.00
2022-08-28T08:35:08.099Z,2.22
2022-08-28T08:40:15.031Z,2.40
2022-08-28T08:45:20.740Z,2.22
2022-08-28T08:50:29.317Z,2.97
2022-08-28T08:55:36.951Z,2.78
2022-08-28T09:01:04.140Z,2.33
2022-08-28T09:06:11.817Z,2.70
2022-08-28T09:11:33.604Z,2.72
2022-08-28T09:16:39.498Z,2.53
2022-08-28T09:21:43.374Z,2.75
2022-08-28T09:26:51.852Z,2.35
2022-08-28T09:31:54.078Z,2.30
2022-08-28T09:36:57.944Z,2.38
2022-08-28T09:42:33.936Z,2.60
2022-08-28T09:47:47.994Z,2.80
2022-08-28T09:52:50.853Z,2.55
2022-08-28T09:57:52.252Z,2.22
2022-08-28T10:03:17.680Z,2.47
2022-08-28T10:08:44.100Z,1.98
2022-08-28T10:14:35.044Z,2.63
2022-08-28T10:20:01.148Z,2.20
2022-08-28T10:25:08.700Z,2.33
2022-08-28T10:30:18.664Z,2.17
2022-08-28T10:35:29.147Z,1.83
2022-08-28T10:40:34.615Z,2.35
2022-08-28T10:45:38.240Z,2.13
2022-08-28T10:50:47.504Z,1.90
2022-08-28T10:55:57.227Z,1.90
2022-08-28T11:01:04.420Z,2.42
2022-08-28T11:06:13.073Z,2.20
2022-08-28T11:11:34.391Z,2.00
2022-08-28T11:16:44.626Z,1.73
2022-08-28T11:21:48.847Z,2.00
2022-08-28T11:27:28.641Z,2.03
2022-08-28T11:32:32.981Z,1.70
2022-08-28T11:37:41.239Z,1.90
2022-08-28T11:42:42.629Z,2.28
2022-08-28T11:47:47.549Z,2.17
2022-08-28T11:53:31.094Z,2.03
2022-08-28T11:59:03.125Z,2.00
2022-08-28T12:04:12.598Z,1.92
2022-08-28T12:09:26.229Z,2.22
2022-08-28T12:14:27.607Z,1.80
2022-08-28T12:19:52.465Z,2.47
2022-08-28T12:25:06.432Z,1.70
2022-08-28T12:30:08.152Z,1.70
2022-08-28T12:35:25.994Z,1.90
2022-08-28T12:40:52.601Z,1.48
2022-08-28T12:46:01.304Z,1.70
2022-08-28T12:51:07.286Z,1.60
2022-08-28T12:56:11.415Z,1.80
2022-08-28T13:01:15.079Z,1.92
2022-08-28T13:06:25.701Z,1.60
2022-08-28T13:11:35.457Z,1.70
2022-08-28T13:16:45.853Z,1.90
2022-08-28T13:21:47.198Z,1.50
2022-08-28T13:27:12.283Z,1.75
2022-08-28T13:32:17.571Z,1.83
2022-08-28T13:37:45.827Z,1.92
2022-08-28T13:42:47.525Z,1.70
2022-08-28T13:47:48.917Z,1.33
2022-08-28T13:52:50.397Z,1.70
2022-08-28T13:57:51.761Z,1.80
2022-08-28T14:03:11.635Z,1.40
2022-08-28T14:08:13.031Z,1.50
2022-08-28T14:13:14.520Z,1.48
2022-08-28T14:18:17.387Z,1.42
2022-08-28T14:23:18.975Z,1.38
2022-08-28T14:28:20.405Z,1.42
2022-08-28T14:33:21.817Z,1.13
2022-08-28T14:38:24.477Z,1.40
2022-08-28T14:43:26.532Z,1.35
2022-08-28T14:48:28.569Z,1.52
2022-08-28T14:53:29.912Z,1.35
2022-08-28T14:58:32.957Z,1.40
2022-08-28T15:03:35.296Z,1.70
2022-08-28T15:08:37.410Z,1.40
2022-08-28T15:13:38.625Z,1.33
2022-08-28T15:18:40.967Z,1.45
2022-08-28T15:23:43.054Z,1.33
2022-08-28T15:28:44.735Z,1.30
2022-08-28T15:33:45.862Z,1.42
2022-08-28T15:39:05.519Z,1.33
2022-08-28T15:44:06.761Z,1.50
2022-08-28T15:49:09.354Z,1.92
2022-08-28T15:54:12.384Z,1.83
2022-08-28T15:59:14.085Z,1.20
2022-08-28T16:04:16.308Z,1.30
2022-08-28T16:09:17.879Z,1.40
2022-08-28T16:14:21.148Z,1.23
2022-08-28T16:19:22.397Z,1.05
2022-08-28T16:24:23.625Z,1.30
2022-08-28T16:29:24.777Z,1.38
2022-08-28T16:34:30.811Z,1.05
2022-08-28T16:39:32.812Z,1.40
2022-08-28T16:44:34.494Z,1.33
2022-08-28T16:49:35.645Z,1.13
2022-08-28T16:54:36.928Z,1.60
2022-08-28T16:59:47.773Z,1.20
2022-08-28T17:04:55.270Z,1.20
2022-08-28T17:09:56.489Z,1.10
2022-08-28T17:15:00.691Z,1.35
2022-08-28T17:20:04.344Z,1.48
2022-08-28T17:25:13.135Z,1.20
2022-08-28T17:30:17.482Z,1.38
2022-08-28T17:35:19.129Z,1.33
2022-08-28T17:40:22.015Z,1.83
2022-08-28T17:45:23.571Z,1.40
2022-08-28T17:50:25.056Z,1.33
2022-08-28T17:55:28.592Z,1.33
2022-08-28T18:00:30.673Z,1.30
2022-08-28T18:05:32.556Z,1.40
2022-08-28T18:10:35.155Z,1.15
2022-08-28T18:15:36.766Z,1.45
2022-08-28T18:20:39.895Z,1.38
2022-08-28T18:25:41.371Z,1.75
2022-08-28T18:30:46.224Z,1.20
2022-08-28T18:35:49.467Z,1.52
2022-08-28T18:40:51.112Z,1.20
2022-08-28T18:45:52.452Z,1.15
2022-08-28T18:50:54.116Z,1.45
2022-08-28T18:55:55.417Z,1.40
2022-08-28T19:00:57.381Z,1.30
2022-08-28T19:05:58.959Z,1.30
2022-08-28T19:11:06.890Z,0.90
2022-08-28T19:16:08.578Z,1.45
2022-08-28T19:21:15.140Z,1.60
2022-08-28T19:26:18.334Z,1.45
2022-08-28T19:31:20.565Z,1.67
2022-08-28T19:36:22.474Z,1.52
2022-08-28T19:41:23.767Z,1.40
2022-08-28T19:46:25.269Z,1.58
2022-08-28T19:51:26.764Z,1.88
2022-08-28T19:56:30.850Z,1.52
2022-08-28T20:01:36.374Z,1.30
2022-08-28T20:06:38.059Z,1.70
2022-08-28T20:11:41.418Z,1.80
2022-08-28T20:16:44.767Z,1.88
2022-08-28T20:21:49.402Z,1.33
2022-08-28T20:26:52.052Z,1.35
2022-08-28T20:31:53.416Z,1.85
2022-08-28T20:37:02.089Z,1.60
2022-08-28T20:42:05.571Z,1.52
2022-08-28T20:47:06.960Z,1.63
2022-08-28T20:52:12.475Z,1.60
2022-08-28T20:57:17.076Z,2.00
2022-08-28T21:02:21.464Z,1.85
2022-08-28T21:07:24.585Z,1.90
2022-08-28T21:12:25.927Z,1.77
2022-08-28T21:17:29.728Z,1.75
2022-08-28T21:22:32.800Z,2.22
2022-08-28T21:27:35.830Z,1.73
2022-08-28T21:32:40.300Z,2.25
2022-08-28T21:37:42.374Z,1.67
2022-08-28T21:42:43.914Z,1.77
2022-08-28T21:47:45.250Z,2.00
2022-08-28T21:52:46.397Z,2.33
2022-08-28T21:57:48.127Z,2.27
2022-08-28T22:02:49.989Z,1.63
2022-08-28T22:07:51.561Z,2.17
2022-08-28T22:12:52.798Z,1.73
2022-08-28T22:17:54.194Z,1.70
2022-08-28T22:23:10.612Z,1.80
2022-08-28T22:28:11.931Z,2.10
2022-08-28T22:33:13.372Z,1.90
2022-08-28T22:38:15.037Z,2.07
2022-08-28T22:43:18.168Z,1.90
2022-08-28T22:48:19.617Z,2.30
2022-08-28T22:53:20.983Z,2.00
2022-08-28T22:58:22.742Z,2.00
2022-08-28T23:03:24.598Z,1.77
2022-08-28T23:08:27.183Z,1.70
2022-08-28T23:13:31.273Z,1.87
2022-08-28T23:18:51.879Z,1.83
2022-08-28T23:23:55.663Z,2.17
2022-08-28T23:28:57.001Z,1.93
2022-08-28T23:33:58.343Z,2.17
2022-08-28T23:39:00.522Z,2.17
2022-08-28T23:44:07.822Z,2.07
2022-08-28T23:49:10.880Z,1.80
2022-08-28T23:54:12.253Z,2.80
2022-08-28T23:59:13.447Z,2.20
